Time;durP1;ratioP1;P1;durP2;ratioP2;P2;SDS_P1;SDS_P2;PMS_P1;PMS_P2;Temp;Humidity;BMP_temperature;BMP_pressure;BME280_temperature;BME280_humidity;BME280_pressure;Samples;Min_cycle;Max_cycle;Signal;HPM_P1;HPM_P2
2022/02/19 00:00:50;;;;;;;;;;;;;;;;;;5066796;28;20022;-77
2022/02/19 00:03:16;;;;;;;;;;;;;;;;;;5073140;28;19960;-78
2022/02/19 00:05:42;;;;;;;;;;;;;;;;;;5079837;28;19927;-76
2022/02/19 00:08:14;;;;;;;;;;;;;;;;;;5081216;28;19917;-76
2022/02/19 00:10:41;;;;;;;;;;;;;;;;;;5080373;28;19970;-76
2022/02/19 00:13:07;;;;;;;;;;;;;;;;;;5084333;28;19920;-77
2022/02/19 00:15:33;;;;;;;;;;;;;;;;;;5080963;28;19916;-76
2022/02/19 00:17:59;;;;;;;;;;;;;;;;;;5072571;28;19978;-76
2022/02/19 00:20:26;;;;;;;;;;;;;;;;;;5079824;28;20292;-77
2022/02/19 00:22:52;;;;;;;;;;;;;;;;;;5077552;28;19935;-76
2022/02/19 00:25:20;;;;;;;;;;;;;;;;;;5078888;28;19923;-76
2022/02/19 00:27:46;;;;;;;;;;;;;;;;;;5076598;28;19912;-77
2022/02/19 00:30:12;;;;;;;;;;;;;;;;;;5077371;28;20401;-75
2022/02/19 00:32:39;;;;;;;;;;;;;;;;;;5077599;28;19920;-76
2022/02/19 00:35:05;;;;;;;;;;;;;;;;;;5064942;28;19952;-76
2022/02/19 00:37:31;;;;;;;;;;;;;;;;;;5065600;28;20414;-75
2022/02/19 00:39:57;;;;;;;;;;;;;;;;;;5065831;28;19956;-77
2022/02/19 00:42:24;;;;;;;;;;;;;;;;;;5064503;28;20621;-77
2022/02/19 00:44:50;;;;;;;;;;;;;;;;;;5061374;28;19960;-77
2022/02/19 00:47:17;;;;;;;;;;;;;;;;;;5063961;28;19956;-77
2022/02/19 00:49:43;;;;;;;;;;;;;;;;;;5069910;28;19971;-76
2022/02/19 00:52:09;;;;;;;;;;;;;;;;;;5066870;28;19956;-77
2022/02/19 00:54:35;;;;;;;;;;;;;;;;;;5065307;28;20453;-78
2022/02/19 00:57:01;;;;;;;;;;;;;;;;;;5069215;28;19955;-79
2022/02/19 00:59:28;;;;;;;;;;;;;;;;;;5060805;28;19968;-78
2022/02/19 01:01:54;;;;;;;;;;;;;;;;;;5059867;28;20332;-78
2022/02/19 01:04:20;;;;;;;;;;;;;;;;;;5067764;28;19971;-77
2022/02/19 01:06:46;;;;;;;;;;;;;;;;;;5067767;28;19963;-77
2022/02/19 01:09:12;;;;;;;;;;;;;;;;;;5060081;28;19948;-77
2022/02/19 01:11:39;;;;;;;;;;;;;;;;;;5062516;28;19954;-76
2022/02/19 01:14:06;;;;;;;;;;;;;;;;;;5057090;28;19913;-77
2022/02/19 01:16:32;;;;;;;;;;;;;;;;;;5070371;28;19980;-76
2022/02/19 01:18:58;;;;;;;;;;;;;;;;;;5058192;28;19944;-77
2022/02/19 01:21:24;;;;;;;;;;;;;;;;;;5068294;28;19959;-75
2022/02/19 01:23:50;;;;;;;;;;;;;;;;;;5063335;28;20461;-76
2022/02/19 01:26:17;;;;;;;;;;;;;;;;;;5066419;28;20006;-77
2022/02/19 01:28:43;;;;;;;;;;;;;;;;;;5062577;28;19963;-77
2022/02/19 01:31:09;;;;;;;;;;;;;;;;;;5064544;28;19963;-78
2022/02/19 01:33:35;;;;;;;;;;;;;;;;;;5062780;28;20532;-77
2022/02/19 01:36:01;;;;;;;;;;;;;;;;;;5065572;28;19955;-77
2022/02/19 01:38:29;;;;;;;;;;;;;;;;;;5062764;28;19963;-77
2022/02/19 01:40:56;;;;;;;;;;;;;;;;;;5062601;28;19952;-77
2022/02/19 01:43:22;;;;;;;;;;;;;;;;;;5050704;28;19928;-77
2022/02/19 01:45:48;;;;;;;;;;;;;;;;;;5063469;28;19971;-77
2022/02/19 01:48:14;;;;;;;;;;;;;;;;;;5062170;28;20466;-78
2022/02/19 01:50:40;;;;;;;;;;;;;;;;;;5067413;28;19944;-77
2022/02/19 01:53:07;;;;;;;;;;;;;;;;;;5067405;28;19956;-78
2022/02/19 01:55:33;;;;;;;;;;;;;;;;;;5061538;28;19967;-78
2022/02/19 01:58:01;;;;;;;;;;;;;;;;;;5063160;28;19948;-78
2022/02/19 02:00:27;;;;;;;;;;;;;;;;;;5069626;28;19967;-78
2022/02/19 02:02:56;;;;;;;;;;;;;;;;;;5069060;28;20349;-78
2022/02/19 02:05:22;;;;;;;;;;;;;;;;;;5065325;28;19952;-78
2022/02/19 02:07:48;;;;;;;;;;;;;;;;;;5062125;28;19963;-78
2022/02/19 02:10:15;;;;;;;;;;;;;;;;;;5064694;28;19974;-78
2022/02/19 02:12:41;;;;;;;;;;;;;;;;;;5065952;28;20403;-77
2022/02/19 02:15:07;;;;;;;;;;;;;;;;;;5066300;28;19967;-78
2022/02/19 02:17:33;;;;;;;;;;;;;;;;;;5065573;28;19998;-76
2022/02/19 02:20:00;;;;;;;;;;;;;;;;;;5066340;28;19964;-77
2022/02/19 02:22:26;;;;;;;;;;;;;;;;;;5067241;28;19963;-77
2022/02/19 02:24:52;;;;;;;;;;;;;;;;;;5065216;28;20733;-76
2022/02/19 02:27:18;;;;;;;;;;;;;;;;;;5065562;28;19951;-77
2022/02/19 02:29:45;;;;;;;;;;;;;;;;;;5070115;28;19974;-77
2022/02/19 02:32:11;;;;;;;;;;;;;;;;;;5070171;28;19963;-77
2022/02/19 02:34:37;;;;;;;;;;;;;;;;;;5070177;28;19956;-76
2022/02/19 02:37:03;;;;;;;;;;;;;;;;;;5068325;28;20510;-77
2022/02/19 02:39:29;;;;;;;;;;;;;;;;;;5069438;28;19966;-77
2022/02/19 02:41:55;;;;;;;;;;;;;;;;;;5068723;28;20377;-77
2022/02/19 02:44:22;;;;;;;;;;;;;;;;;;5070294;28;19920;-77
2022/02/19 02:46:50;;;;;;;;;;;;;;;;;;5068666;28;19959;-75
2022/02/19 02:49:16;;;;;;;;;;;;;;;;;;5063564;28;20011;-75
2022/02/19 02:51:42;;;;;;;;;;;;;;;;;;5065242;28;19921;-75
2022/02/19 02:54:08;;;;;;;;;;;;;;;;;;5073837;28;19944;-75
2022/02/19 02:56:34;;;;;;;;;;;;;;;;;;5068805;28;19966;-76
2022/02/19 02:59:01;;;;;;;;;;;;;;;;;;5069760;28;20340;-76
2022/02/19 03:01:27;;;;;;;;;;;;;;;;;;5062760;28;20114;-76
2022/02/19 03:03:53;;;;;;;;;;;;;;;;;;5065539;28;19955;-75
2022/02/19 03:06:19;;;;;;;;;;;;;;;;;;5067667;28;19948;-77
2022/02/19 03:08:45;;;;;;;;;;;;;;;;;;5068052;28;19924;-77
2022/02/19 03:11:11;;;;;;;;;;;;;;;;;;5068892;28;19960;-77
2022/02/19 03:13:38;;;;;;;;;;;;;;;;;;5064907;28;19963;-77
2022/02/19 03:16:04;;;;;;;;;;;;;;;;;;5061590;28;20373;-78
2022/02/19 03:18:30;;;;;;;;;;;;;;;;;;5066901;28;19963;-75
2022/02/19 03:20:56;;;;;;;;;;;;;;;;;;5064620;28;19962;-75
2022/02/19 03:23:23;;;;;;;;;;;;;;;;;;5068615;28;19956;-76
2022/02/19 03:25:49;;;;;;;;;;;;;;;;;;5068259;28;19967;-75
2022/02/19 03:28:15;;;;;;;;;;;;;;;;;;5071231;28;19986;-75
2022/02/19 03:30:41;;;;;;;;;;;;;;;;;;5063142;28;19948;-75
2022/02/19 03:33:07;;;;;;;;;;;;;;;;;;5068187;28;20356;-75
2022/02/19 03:35:33;;;;;;;;;;;;;;;;;;5065483;28;19952;-75
2022/02/19 03:38:00;;;;;;;;;;;;;;;;;;5066208;28;19960;-75
2022/02/19 03:40:26;;;;;;;;;;;;;;;;;;5069101;28;20532;-74
2022/02/19 03:42:52;;;;;;;;;;;;;;;;;;5066792;28;19976;-75
2022/02/19 03:45:18;;;;;;;;;;;;;;;;;;5068960;28;20367;-75
2022/02/19 03:47:44;;;;;;;;;;;;;;;;;;5067601;28;19960;-76
2022/02/19 03:50:11;;;;;;;;;;;;;;;;;;5071227;28;19966;-76
2022/02/19 03:52:37;;;;;;;;;;;;;;;;;;5066718;28;20307;-75
2022/02/19 03:55:03;;;;;;;;;;;;;;;;;;5065841;28;20441;-76
2022/02/19 03:57:29;;;;;;;;;;;;;;;;;;5067438;28;19967;-76
2022/02/19 03:59:55;;;;;;;;;;;;;;;;;;5063864;28;19941;-76
2022/02/19 04:02:22;;;;;;;;;;;;;;;;;;5067105;28;19964;-76
2022/02/19 04:04:48;;;;;;;;;;;;;;;;;;5065349;28;20051;-75
2022/02/19 04:07:14;;;;;;;;;;;;;;;;;;5067097;28;20407;-76
2022/02/19 04:09:40;;;;;;;;;;;;;;;;;;5065546;28;19959;-76
2022/02/19 04:12:06;;;;;;;;;;;;;;;;;;5068529;28;19958;-76
2022/02/19 04:14:33;;;;;;;;;;;;;;;;;;5066793;28;19966;-74
2022/02/19 04:16:59;;;;;;;;;;;;;;;;;;5062474;28;19944;-75
2022/02/19 04:19:28;;;;;;;;;;;;;;;;;;5064996;28;20467;-76
2022/02/19 04:21:56;;;;;;;;;;;;;;;;;;5061431;28;19924;-76
2022/02/19 04:24:25;;;;;;;;;;;;;;;;;;5065449;28;20034;-75
2022/02/19 04:26:51;;;;;;;;;;;;;;;;;;5062760;28;19956;-76
2022/02/19 04:29:18;;;;;;;;;;;;;;;;;;5067169;28;20442;-76
2022/02/19 04:31:44;;;;;;;;;;;;;;;;;;5061178;28;19956;-75
2022/02/19 04:34:10;;;;;;;;;;;;;;;;;;5063687;28;19963;-75
2022/02/19 04:36:36;;;;;;;;;;;;;;;;;;5068332;28;19957;-76
2022/02/19 04:39:02;;;;;;;;;;;;;;;;;;5061536;28;20528;-75
2022/02/19 04:41:28;;;;;;;;;;;;;;;;;;5065465;28;19924;-75
2022/02/19 04:43:55;;;;;;;;;;;;;;;;;;5064319;28;20672;-75
2022/02/19 04:46:21;;;;;;;;;;;;;;;;;;5066814;28;19956;-76
2022/02/19 04:48:47;;;;;;;;;;;;;;;;;;5063356;28;19962;-75
2022/02/19 04:51:13;;;;;;;;;;;;;;;;;;5066037;28;20002;-75
2022/02/19 04:53:39;;;;;;;;;;;;;;;;;;5066322;28;19952;-75
2022/02/19 04:56:05;;;;;;;;;;;;;;;;;;5066857;28;20392;-75
2022/02/19 04:58:32;;;;;;;;;;;;;;;;;;5067640;28;19944;-75
2022/02/19 05:00:58;;;;;;;;;;;;;;;;;;5063999;28;20364;-74
2022/02/19 05:03:24;;;;;;;;;;;;;;;;;;5066103;28;19963;-74
2022/02/19 05:05:50;;;;;;;;;;;;;;;;;;5068398;28;19959;-74
2022/02/19 05:08:16;;;;;;;;;;;;;;;;;;5066200;28;19997;-74
2022/02/19 05:10:43;;;;;;;;;;;;;;;;;;5066921;28;20413;-77
2022/02/19 05:13:09;;;;;;;;;;;;;;;;;;5066144;28;19970;-76
2022/02/19 05:15:35;;;;;;;;;;;;;;;;;;5065243;28;19956;-76
2022/02/19 05:18:05;;;;;;;;;;;;;;;;;;5064392;28;19993;-76
2022/02/19 05:20:31;;;;;;;;;;;;;;;;;;5064619;28;19944;-77
2022/02/19 05:22:58;;;;;;;;;;;;;;;;;;5067280;28;19978;-76
2022/02/19 05:25:24;;;;;;;;;;;;;;;;;;5064536;28;19967;-76
2022/02/19 05:27:51;;;;;;;;;;;;;;;;;;5060635;28;19967;-76
2022/02/19 05:30:17;;;;;;;;;;;;;;;;;;5066600;28;20767;-76
2022/02/19 05:32:43;;;;;;;;;;;;;;;;;;5062128;28;19956;-76
2022/02/19 05:35:09;;;;;;;;;;;;;;;;;;5065923;28;19963;-76
2022/02/19 05:37:35;;;;;;;;;;;;;;;;;;5062654;28;19985;-75
2022/02/19 05:40:02;;;;;;;;;;;;;;;;;;5070691;28;20375;-76
2022/02/19 05:42:28;;;;;;;;;;;;;;;;;;5063008;28;19964;-76
2022/02/19 05:44:54;;;;;;;;;;;;;;;;;;5061550;28;19944;-76
2022/02/19 05:47:20;;;;;;;;;;;;;;;;;;5063122;28;20368;-77
2022/02/19 05:49:46;;;;;;;;;;;;;;;;;;5067019;28;19955;-76
2022/02/19 05:52:13;;;;;;;;;;;;;;;;;;5065724;28;19985;-75
2022/02/19 05:54:39;;;;;;;;;;;;;;;;;;5082919;28;19963;-75
2022/02/19 05:57:05;;;;;;;;;;;;;;;;;;5067440;27;19963;-75
2022/02/19 05:59:31;;;;;;;;;;;;;;;;;;5074163;28;19955;-75
2022/02/19 06:01:57;;;;;;;;;;;;;;;;;;5068765;28;19921;-76
2022/02/19 06:04:23;;;;;;;;;;;;;;;;;;5067631;28;19952;-75
2022/02/19 06:06:50;;;;;;;;;;;;;;;;;;5065242;28;20355;-75
2022/02/19 06:09:16;;;;;;;;;;;;;;;;;;5068933;28;19970;-78
2022/02/19 06:11:42;;;;;;;;;;;;;;;;;;5064115;28;19960;-77
2022/02/19 06:14:08;;;;;;;;;;;;;;;;;;5064778;28;19970;-77
2022/02/19 06:16:35;;;;;;;;;;;;;;;;;;5065136;28;19963;-76
2022/02/19 06:19:01;;;;;;;;;;;;;;;;;;5063760;28;20006;-76
2022/02/19 06:21:27;;;;;;;;;;;;;;;;;;5067625;28;19963;-75
2022/02/19 06:23:53;;;;;;;;;;;;;;;;;;5065045;28;20047;-74
2022/02/19 06:26:20;;;;;;;;;;;;;;;;;;5068523;28;19959;-75
2022/02/19 06:28:46;;;;;;;;;;;;;;;;;;5062837;28;19952;-74
2022/02/19 06:31:12;;;;;;;;;;;;;;;;;;5063467;28;19952;-73
2022/02/19 06:33:38;;;;;;;;;;;;;;;;;;5064731;28;20010;-74
2022/02/19 06:36:04;;;;;;;;;;;;;;;;;;5066725;28;19971;-74
2022/02/19 06:38:31;;;;;;;;;;;;;;;;;;5067738;28;19948;-75
2022/02/19 06:40:57;;;;;;;;;;;;;;;;;;5066484;28;19963;-74
2022/02/19 06:43:23;;;;;;;;;;;;;;;;;;5066540;28;19928;-74
2022/02/19 06:45:49;;;;;;;;;;;;;;;;;;5062332;28;19987;-74
2022/02/19 06:48:15;;;;;;;;;;;;;;;;;;5066711;28;19962;-77
2022/02/19 06:50:41;;;;;;;;;;;;;;;;;;5064611;28;19948;-76
2022/02/19 06:53:08;;;;;;;;;;;;;;;;;;5065765;28;19920;-75
2022/02/19 06:55:34;;;;;;;;;;;;;;;;;;5067333;28;20326;-76
2022/02/19 06:58:00;;;;;;;;;;;;;;;;;;5066742;28;19963;-76
2022/02/19 07:00:26;;;;;;;;;;;;;;;;;;5068475;28;19959;-75
2022/02/19 07:02:53;;;;;;;;;;;;;;;;;;5065485;28;19936;-76
2022/02/19 07:05:19;;;;;;;;;;;;;;;;;;5066297;28;19963;-76
2022/02/19 07:07:45;;;;;;;;;;;;;;;;;;5063243;28;20020;-76
2022/02/19 07:10:11;;;;;;;;;;;;;;;;;;5066458;28;20013;-77
2022/02/19 07:12:38;;;;;;;;;;;;;;;;;;5060886;28;19956;-75
2022/02/19 07:15:04;;;;;;;;;;;;;;;;;;5067012;28;20340;-75
2022/02/19 07:17:30;;;;;;;;;;;;;;;;;;5065073;28;19948;-75
2022/02/19 07:19:56;;;;;;;;;;;;;;;;;;5065332;28;19967;-75
2022/02/19 07:22:22;;;;;;;;;;;;;;;;;;5064306;28;19956;-76
2022/02/19 07:24:48;;;;;;;;;;;;;;;;;;5065267;28;19975;-74
2022/02/19 07:27:15;;;;;;;;;;;;;;;;;;5067286;28;19948;-75
2022/02/19 07:29:41;;;;;;;;;;;;;;;;;;5064794;28;19952;-75
2022/02/19 07:32:09;;;;;;;;;;;;;;;;;;5061239;28;19971;-74
2022/02/19 07:34:35;;;;;;;;;;;;;;;;;;5063717;28;19963;-73
2022/02/19 07:37:01;;;;;;;;;;;;;;;;;;5071397;28;19948;-75
2022/02/19 07:39:27;;;;;;;;;;;;;;;;;;5061244;28;19975;-74
2022/02/19 07:41:53;;;;;;;;;;;;;;;;;;5064985;28;19963;-74
2022/02/19 07:44:19;;;;;;;;;;;;;;;;;;5063707;28;19960;-75
2022/02/19 07:46:46;;;;;;;;;;;;;;;;;;5065728;28;19958;-76
2022/02/19 08:00:11;;;;;;;;;;;;;;;;;;5064099;28;19952;-76
2022/02/19 08:02:38;;;;;;;;;;;;;;;;;;5062415;28;20027;-70
2022/02/19 08:05:04;;;;;;;;;;;;;;;;;;5063824;28;19951;-69
2022/02/19 08:07:30;;;;;;;;;;;;;;;;;;5066754;28;19963;-69
2022/02/19 08:09:56;;;;;;;;;;;;;;;;;;5061525;28;20449;-69
2022/02/19 08:12:22;;;;;;;;;;;;;;;;;;5058318;28;20002;-70
2022/02/19 08:14:49;;;;;;;;;;;;;;;;;;5059205;28;19963;-69
2022/02/19 08:17:15;;;;;;;;;;;;;;;;;;5064585;28;19960;-69
2022/02/19 08:19:41;;;;;;;;;;;;;;;;;;5062032;28;19932;-71
2022/02/19 08:22:07;;;;;;;;;;;;;;;;;;5063186;28;20825;-69
2022/02/19 08:24:33;;;;;;;;;;;;;;;;;;5061293;28;20001;-70
2022/02/19 08:27:00;;;;;;;;;;;;;;;;;;5059039;28;19952;-69
2022/02/19 08:29:26;;;;;;;;;;;;;;;;;;5062696;27;20005;-70
2022/02/19 08:31:52;;;;;;;;;;;;;;;;;;5062038;27;20014;-75
2022/02/19 08:34:18;;;;;;;;;;;;;;;;;;5061601;28;20467;-74
2022/02/19 08:36:44;;;;;;;;;;;;;;;;;;5063526;28;19947;-74
2022/02/19 08:39:11;;;;;;;;;;;;;;;;;;5061608;28;19960;-73
2022/02/19 08:41:37;;;;;;;;;;;;;;;;;;5062774;28;19960;-74
2022/02/19 08:44:03;;;;;;;;;;;;;;;;;;5074166;28;19969;-73
2022/02/19 08:46:29;;;;;;;;;;;;;;;;;;5063439;28;19971;-74
2022/02/19 08:48:55;;;;;;;;;;;;;;;;;;5062419;28;19955;-77
2022/02/19 08:51:22;;;;;;;;;;;;;;;;;;5061376;28;20418;-76
2022/02/19 08:53:48;;;;;;;;;;;;;;;;;;5061607;28;19955;-72
2022/02/19 08:56:14;;;;;;;;;;;;;;;;;;5064381;28;20356;-76
2022/02/19 08:58:41;;;;;;;;;;;;;;;;;;5062302;28;19963;-76
2022/02/19 09:01:07;;;;;;;;;;;;;;;;;;5062742;28;20043;-75
2022/02/19 09:03:34;;;;;;;;;;;;;;;;;;5061782;28;20005;-75
2022/02/19 09:06:01;;;;;;;;;;;;;;;;;;5059636;28;19974;-78
2022/02/19 09:08:27;;;;;;;;;;;;;;;;;;5064391;28;19983;-77
2022/02/19 09:10:53;;;;;;;;;;;;;;;;;;5061039;28;19960;-77
2022/02/19 09:13:19;;;;;;;;;;;;;;;;;;5063292;28;19967;-76
2022/02/19 09:15:48;;;;;;;;;;;;;;;;;;5061565;28;20763;-76
2022/02/19 09:18:14;;;;;;;;;;;;;;;;;;5061362;28;20019;-77
2022/02/19 09:20:40;;;;;;;;;;;;;;;;;;5060312;28;19967;-77
2022/02/19 09:23:06;;;;;;;;;;;;;;;;;;5053514;28;19971;-77
2022/02/19 09:25:32;;;;;;;;;;;;;;;;;;5063898;28;19960;-77
2022/02/19 09:27:59;;;;;;;;;;;;;;;;;;5061027;28;20372;-77
2022/02/19 09:30:25;;;;;;;;;;;;;;;;;;5064699;28;20371;-77
2022/02/19 09:32:51;;;;;;;;;;;;;;;;;;5062628;28;19960;-77
2022/02/19 09:35:17;;;;;;;;;;;;;;;;;;5063419;28;20010;-77
2022/02/19 09:37:43;;;;;;;;;;;;;;;;;;5066193;28;19920;-81
2022/02/19 09:40:10;;;;;;;;;;;;;;;;;;5067849;28;19925;-70
2022/02/19 09:42:36;;;;;;;;;;;;;;;;;;5066068;28;19917;-77
2022/02/19 09:45:03;;;;;;;;;;;;;;;;;;5065191;28;19967;-78
2022/02/19 09:47:29;;;;;;;;;;;;;;;;;;5066176;28;20008;-78
2022/02/19 09:49:56;;;;;;;;;;;;;;;;;;5060663;28;19951;-79
2022/02/19 09:52:23;;;;;;;;;;;;;;;;;;5064398;28;19959;-79
2022/02/19 09:54:50;;;;;;;;;;;;;;;;;;5063121;28;19987;-81
2022/02/19 09:57:16;;;;;;;;;;;;;;;;;;5063025;28;20347;-84
2022/02/19 09:59:42;;;;;;;;;;;;;;;;;;5062791;28;19916;-81
2022/02/19 10:02:08;;;;;;;;;;;;;;;;;;5069238;28;19921;-82
2022/02/19 10:04:35;;;;;;;;;;;;;;;;;;5062604;28;20014;-81
2022/02/19 10:07:01;;;;;;;;;;;;;;;;;;5065826;28;19944;-81
2022/02/19 10:09:28;;;;;;;;;;;;;;;;;;5070229;28;19954;-82
2022/02/19 10:11:54;;;;;;;;;;;;;;;;;;5065119;28;20451;-81
2022/02/19 10:14:20;;;;;;;;;;;;;;;;;;5077178;28;19971;-81
2022/02/19 10:16:46;;;;;;;;;;;;;;;;;;5063580;28;20049;-82
2022/02/19 10:19:12;;;;;;;;;;;;;;;;;;5061944;28;19978;-81
2022/02/19 10:21:39;;;;;;;;;;;;;;;;;;5064576;28;19963;-79
2022/02/19 10:24:05;;;;;;;;;;;;;;;;;;5065159;28;19967;-77
2022/02/19 10:26:33;;;;;;;;;;;;;;;;;;5066369;28;19983;-78
2022/02/19 10:28:59;;;;;;;;;;;;;;;;;;5063322;28;19983;-78
2022/02/19 10:31:25;;;;;;;;;;;;;;;;;;5071797;28;19959;-79
2022/02/19 10:33:52;;;;;;;;;;;;;;;;;;5077070;28;19921;-79
2022/02/19 10:36:18;;;;;;;;;;;;;;;;;;5081879;28;19924;-78
2022/02/19 10:38:44;;;;;;;;;;;;;;;;;;5073309;28;19944;-80
2022/02/19 10:41:10;;;;;;;;;;;;;;;;;;5079877;28;19917;-80
2022/02/19 10:43:36;;;;;;;;;;;;;;;;;;5080840;28;19921;-83
2022/02/19 10:46:03;;;;;;;;;;;;;;;;;;5081167;28;19917;-80
2022/02/19 10:48:29;;;;;;;;;;;;;;;;;;5081699;28;19920;-77
2022/02/19 10:50:55;;;;;;;;;;;;;;;;;;5075062;28;19928;-79
2022/02/19 10:53:21;;;;;;;;;;;;;;;;;;5070579;28;19960;-80
2022/02/19 10:55:47;;;;;;;;;;;;;;;;;;5070395;28;20413;-81
2022/02/19 10:58:13;;;;;;;;;;;;;;;;;;5070826;28;20027;-82
2022/02/19 11:00:40;;;;;;;;;;;;;;;;;;5066413;28;19952;-81
2022/02/19 11:03:06;;;;;;;;;;;;;;;;;;5068253;28;19955;-79
2022/02/19 11:05:32;;;;;;;;;;;;;;;;;;5077824;28;19944;-79
2022/02/19 11:07:58;;;;;;;;;;;;;;;;;;5066431;28;20902;-76
2022/02/19 11:10:24;;;;;;;;;;;;;;;;;;5069816;28;19920;-76
2022/02/19 11:12:51;;;;;;;;;;;;;;;;;;5070353;28;19986;-80
2022/02/19 11:15:18;;;;;;;;;;;;;;;;;;5067143;28;19952;-75
2022/02/19 11:17:45;;;;;;;;;;;;;;;;;;5067964;28;19963;-77
2022/02/19 11:20:12;;;;;;;;;;;;;;;;;;5067833;28;20405;-75
2022/02/19 11:22:38;;;;;;;;;;;;;;;;;;5066600;28;19948;-80
2022/02/19 11:25:04;;;;;;;;;;;;;;;;;;5076944;28;19997;-81
2022/02/19 11:27:31;;;;;;;;;;;;;;;;;;5068669;28;19948;-79
2022/02/19 11:29:57;;;;;;;;;;;;;;;;;;5065592;28;19959;-75
2022/02/19 11:32:23;;;;;;;;;;;;;;;;;;5063765;28;20891;-77
2022/02/19 11:34:49;;;;;;;;;;;;;;;;;;5067895;28;19960;-78
2022/02/19 11:37:16;;;;;;;;;;;;;;;;;;5069054;28;19952;-78
2022/02/19 11:39:42;;;;;;;;;;;;;;;;;;5067022;28;19951;-77
2022/02/19 11:42:08;;;;;;;;;;;;;;;;;;5065335;28;19967;-76
2022/02/19 11:44:36;;;;;;;;;;;;;;;;;;5061453;28;19997;-76
2022/02/19 11:47:02;;;;;;;;;;;;;;;;;;5061821;28;19940;-77
2022/02/19 11:49:28;;;;;;;;;;;;;;;;;;5064748;28;20393;-76
2022/02/19 11:51:54;;;;;;;;;;;;;;;;;;5064043;28;19978;-77
2022/02/19 11:54:20;;;;;;;;;;;;;;;;;;5059512;28;19966;-76
2022/02/19 11:56:47;;;;;;;;;;;;;;;;;;5066272;28;19948;-75
2022/02/19 11:59:13;;;;;;;;;;;;;;;;;;5064670;28;20480;-75
2022/02/19 12:01:40;;;;;;;;;;;;;;;;;;5065270;28;19955;-75
2022/02/19 12:04:06;;;;;;;;;;;;;;;;;;5063545;28;20451;-75
2022/02/19 12:06:32;;;;;;;;;;;;;;;;;;5069323;28;20002;-75
2022/02/19 12:08:58;;;;;;;;;;;;;;;;;;5064267;28;19966;-75
2022/02/19 12:11:24;;;;;;;;;;;;;;;;;;5065847;28;19978;-75
2022/02/19 12:13:52;;;;;;;;;;;;;;;;;;5065308;28;19963;-76
2022/02/19 12:16:18;;;;;;;;;;;;;;;;;;5057402;28;19956;-75
2022/02/19 12:18:44;;;;;;;;;;;;;;;;;;5066155;28;19960;-76
2022/02/19 12:21:11;;;;;;;;;;;;;;;;;;5067776;28;20062;-76
2022/02/19 12:23:37;;;;;;;;;;;;;;;;;;5066957;28;19963;-75
2022/02/19 12:26:03;;;;;;;;;;;;;;;;;;5062702;28;20332;-76
2022/02/19 12:28:30;;;;;;;;;;;;;;;;;;5071499;28;20368;-75
2022/02/19 12:30:56;;;;;;;;;;;;;;;;;;5067621;28;20860;-76
2022/02/19 12:33:22;;;;;;;;;;;;;;;;;;5066588;28;19990;-75
2022/02/19 12:35:49;;;;;;;;;;;;;;;;;;5066019;28;19944;-77
2022/02/19 12:38:16;;;;;;;;;;;;;;;;;;5063801;28;20437;-74
2022/02/19 12:40:42;;;;;;;;;;;;;;;;;;5064815;28;19959;-74
2022/02/19 12:43:08;;;;;;;;;;;;;;;;;;5065352;28;20003;-76
2022/02/19 12:45:34;;;;;;;;;;;;;;;;;;5062144;28;20384;-75
2022/02/19 12:48:01;;;;;;;;;;;;;;;;;;5068367;28;19985;-76
2022/02/19 12:50:27;;;;;;;;;;;;;;;;;;5067603;28;19954;-76
2022/02/19 12:52:53;;;;;;;;;;;;;;;;;;5068865;28;19959;-79
2022/02/19 12:55:19;;;;;;;;;;;;;;;;;;5070142;28;19960;-73
2022/02/19 12:57:46;;;;;;;;;;;;;;;;;;5064389;28;19967;-73
2022/02/19 13:00:12;;;;;;;;;;;;;;;;;;5066581;28;20355;-73
2022/02/19 13:02:38;;;;;;;;;;;;;;;;;;5063477;28;19925;-73
2022/02/19 13:05:04;;;;;;;;;;;;;;;;;;5064971;28;19971;-73
2022/02/19 13:07:30;;;;;;;;;;;;;;;;;;5064171;28;19971;-73
2022/02/19 13:09:57;;;;;;;;;;;;;;;;;;5062018;28;20352;-75
2022/02/19 13:12:23;;;;;;;;;;;;;;;;;;5069166;28;19920;-74
2022/02/19 13:14:49;;;;;;;;;;;;;;;;;;5061734;28;19948;-75
2022/02/19 13:17:15;;;;;;;;;;;;;;;;;;5065458;28;20034;-73
2022/02/19 13:19:42;;;;;;;;;;;;;;;;;;5064394;28;19960;-73
2022/02/19 13:22:10;;;;;;;;;;;;;;;;;;5061268;28;20200;-74
2022/02/19 13:24:36;;;;;;;;;;;;;;;;;;5064417;28;20411;-74
2022/02/19 13:27:02;;;;;;;;;;;;;;;;;;5063260;28;19927;-73
2022/02/19 13:29:29;;;;;;;;;;;;;;;;;;5060891;28;19947;-74
2022/02/19 13:31:55;;;;;;;;;;;;;;;;;;5061591;28;19956;-73
2022/02/19 13:34:21;;;;;;;;;;;;;;;;;;5061571;28;19927;-73
2022/02/19 13:36:47;;;;;;;;;;;;;;;;;;5063225;28;20418;-73
2022/02/19 13:39:14;;;;;;;;;;;;;;;;;;5064006;28;19956;-75
2022/02/19 13:41:40;;;;;;;;;;;;;;;;;;5066745;28;20431;-73
2022/02/19 13:44:06;;;;;;;;;;;;;;;;;;5066739;28;19963;-74
2022/02/19 13:46:32;;;;;;;;;;;;;;;;;;5066163;28;19974;-74
2022/02/19 13:49:01;;;;;;;;;;;;;;;;;;5064306;28;19951;-74
2022/02/19 13:51:27;;;;;;;;;;;;;;;;;;5065207;28;19959;-73
2022/02/19 13:53:53;;;;;;;;;;;;;;;;;;5059332;28;22251;-74
2022/02/19 13:56:20;;;;;;;;;;;;;;;;;;5065192;28;19936;-73
2022/02/19 13:58:51;;;;;;;;;;;;;;;;;;5063006;28;20663;-74
2022/02/19 14:01:17;;;;;;;;;;;;;;;;;;5059505;28;19952;-74
2022/02/19 14:03:43;;;;;;;;;;;;;;;;;;5063083;28;19955;-73
2022/02/19 14:06:10;;;;;;;;;;;;;;;;;;5063290;28;20000;-73
2022/02/19 14:08:36;;;;;;;;;;;;;;;;;;5063561;28;19940;-73
2022/02/19 14:11:02;;;;;;;;;;;;;;;;;;5064386;28;19955;-73
2022/02/19 14:13:29;;;;;;;;;;;;;;;;;;5067029;28;19952;-73
2022/02/19 14:15:55;;;;;;;;;;;;;;;;;;5066100;28;19967;-74
2022/02/19 14:18:21;;;;;;;;;;;;;;;;;;5066696;28;19963;-73
2022/02/19 14:20:47;;;;;;;;;;;;;;;;;;5067517;28;20386;-73
2022/02/19 14:23:14;;;;;;;;;;;;;;;;;;5067151;28;19954;-72
2022/02/19 14:25:41;;;;;;;;;;;;;;;;;;5067178;28;19959;-73
2022/02/19 14:28:08;;;;;;;;;;;;;;;;;;5066618;28;20010;-73
2022/02/19 14:30:34;;;;;;;;;;;;;;;;;;5066467;28;19948;-73
2022/02/19 14:33:00;;;;;;;;;;;;;;;;;;5067918;28;20348;-74
2022/02/19 14:35:26;;;;;;;;;;;;;;;;;;5067951;28;19971;-79
2022/02/19 14:37:52;;;;;;;;;;;;;;;;;;5065268;28;19917;-79
2022/02/19 14:40:19;;;;;;;;;;;;;;;;;;5066651;28;19998;-78
2022/02/19 14:42:46;;;;;;;;;;;;;;;;;;5065855;28;19959;-76
2022/02/19 14:45:13;;;;;;;;;;;;;;;;;;5064116;28;20030;-77
2022/02/19 14:47:42;;;;;;;;;;;;;;;;;;5066956;28;19912;-76
2022/02/19 14:50:08;;;;;;;;;;;;;;;;;;5070032;28;20025;-77
2022/02/19 14:52:35;;;;;;;;;;;;;;;;;;5066192;28;19940;-75
2022/02/19 14:55:01;;;;;;;;;;;;;;;;;;5065287;28;19956;-77
2022/02/19 14:57:27;;;;;;;;;;;;;;;;;;5065791;28;20441;-76
2022/02/19 14:59:53;;;;;;;;;;;;;;;;;;5067101;28;19959;-75
2022/02/19 15:02:19;;;;;;;;;;;;;;;;;;5068343;28;20417;-75
2022/02/19 15:04:46;;;;;;;;;;;;;;;;;;5067335;28;20363;-75
2022/02/19 15:07:12;;;;;;;;;;;;;;;;;;5069829;28;19947;-75
2022/02/19 15:09:38;;;;;;;;;;;;;;;;;;5061413;28;20376;-75
2022/02/19 15:12:08;;;;;;;;;;;;;;;;;;5068326;28;20392;-75
2022/02/19 15:14:34;;;;;;;;;;;;;;;;;;5066514;28;20024;-74
2022/02/19 15:17:00;;;;;;;;;;;;;;;;;;5067097;28;19948;-75
2022/02/19 15:19:27;;;;;;;;;;;;;;;;;;5068964;28;20392;-75
2022/02/19 15:21:53;;;;;;;;;;;;;;;;;;5068930;28;19967;-75
2022/02/19 15:24:19;;;;;;;;;;;;;;;;;;5060618;28;20013;-75
2022/02/19 15:26:45;;;;;;;;;;;;;;;;;;5064501;28;19960;-76
2022/02/19 15:29:11;;;;;;;;;;;;;;;;;;5068351;28;19963;-76
2022/02/19 15:31:38;;;;;;;;;;;;;;;;;;5067073;28;20415;-76
2022/02/19 15:34:05;;;;;;;;;;;;;;;;;;5063732;28;20323;-77
2022/02/19 15:36:31;;;;;;;;;;;;;;;;;;5064062;28;20741;-77
2022/02/19 15:38:57;;;;;;;;;;;;;;;;;;5072085;28;19951;-77
2022/02/19 15:41:23;;;;;;;;;;;;;;;;;;5065203;28;19967;-77
2022/02/19 15:43:55;;;;;;;;;;;;;;;;;;5061312;28;20021;-77
2022/02/19 15:46:22;;;;;;;;;;;;;;;;;;5067232;28;19978;-78
2022/02/19 15:48:48;;;;;;;;;;;;;;;;;;5064971;28;19979;-77
2022/02/19 15:51:14;;;;;;;;;;;;;;;;;;5064396;28;19919;-76
2022/02/19 15:53:40;;;;;;;;;;;;;;;;;;5065944;28;19971;-76
2022/02/19 15:56:06;;;;;;;;;;;;;;;;;;5068501;28;19923;-76
2022/02/19 15:58:33;;;;;;;;;;;;;;;;;;5065117;28;20398;-75
2022/02/19 16:01:00;;;;;;;;;;;;;;;;;;5069174;28;20289;-77
2022/02/19 16:03:26;;;;;;;;;;;;;;;;;;5057334;28;20368;-75
2022/02/19 16:05:53;;;;;;;;;;;;;;;;;;5063510;28;20035;-75
2022/02/19 16:08:19;;;;;;;;;;;;;;;;;;5062648;28;19952;-76
2022/02/19 16:10:46;;;;;;;;;;;;;;;;;;5064129;28;19971;-75
2022/02/19 16:13:12;;;;;;;;;;;;;;;;;;5067015;28;20363;-77
2022/02/19 16:15:38;;;;;;;;;;;;;;;;;;5061044;28;19925;-78
2022/02/19 16:18:04;;;;;;;;;;;;;;;;;;5065337;28;19960;-78
2022/02/19 16:20:31;;;;;;;;;;;;;;;;;;5065322;28;19935;-78
2022/02/19 16:22:57;;;;;;;;;;;;;;;;;;5062706;28;20372;-79
2022/02/19 16:25:23;;;;;;;;;;;;;;;;;;5065733;28;19968;-79
2022/02/19 16:27:49;;;;;;;;;;;;;;;;;;5067515;28;19963;-79
2022/02/19 16:30:15;;;;;;;;;;;;;;;;;;5071087;28;19947;-79
2022/02/19 16:32:42;;;;;;;;;;;;;;;;;;5065898;28;19951;-79
2022/02/19 16:35:08;;;;;;;;;;;;;;;;;;5064935;28;20676;-79
2022/02/19 16:37:34;;;;;;;;;;;;;;;;;;5062885;28;20015;-77
2022/02/19 16:40:00;;;;;;;;;;;;;;;;;;5064173;28;19963;-78
2022/02/19 16:42:27;;;;;;;;;;;;;;;;;;5066067;28;19979;-77
2022/02/19 16:44:53;;;;;;;;;;;;;;;;;;5062691;28;19986;-77
2022/02/19 16:47:19;;;;;;;;;;;;;;;;;;5066196;28;19978;-76
2022/02/19 16:49:47;;;;;;;;;;;;;;;;;;5064161;28;20301;-74